Гомель

Карта отелей и гостиниц, располагающихся рядом с аэропортом Гомель :

Гомель Гомельская область 52° 31' 37.2612" N, 31° 1' 0.12" E
Код аэродрома ИКАО
UMGG
Код аэродрома RU
УМГГ
Координаты
N52.52702° E031.01670°
Превышение над уровнем моря
143
Основная полоса
10/28
Курс магнитный
102,8/282,8
Длина основной ВПП
2569
Ширина основной ВПП
43
Покрытие основной ВПП
Твёрдое
Освещение ВПП
Постоянное
Тип: 
Аэродром
Класс аэродрома: 
Международный
Принадлежность: 
ГА
Статус: 
Действующий
Сайт: 
http://www.avia.by/page-843-ru.html
Страна: 
Беларусь
Регион: 
Гомельская область
Дополнительная информация: 
Оператор: Гомельский филиал ГП "Белаэронавигация". Введен в эксплуатацию в 1967 г. В 1993 г. придан статус международного.
Погода: 

Авиационная погода в Гомеле

Регион: 
Погода METAR: 
UMGG 271500Z 30005G08MPS 9999 OVC021CB 02/01 Q1016 R28/290050 NOSIG
Время наблюдения
2021-02-27T15:00:00Z
Температура C
2.0
Точка росы
1.0
Направление ветра
300
Скорость ветра (узлы)
10
Метео видимость
6.21
Явления погоды
Условия полета
MVFR
Аэропорт подробнее: 

Найти трансфер

С помощью этой формы Вы можете найти трансфер из аэропорта Гомель в город, аэропорт или вокзал:

Карта места

Javascript is required to view this map.

Погода в аэропортах:

Авиационная погода в Алматы

Регион: 
Погода METAR: 
UAAA 271500Z 15001MPS 1800 R23R/P2000U R23L/P2000 BR FU SCT050 BKN100 M05/M09 Q1029 R88/65D TEMPO 1500 FU
Время наблюдения
2021-02-27T15:00:00Z
Температура C
-5.0
Точка росы
-9.0
Направление ветра
150
Скорость ветра (узлы)
2
Метео видимость
1.12
Явления погоды
FU BR
Условия полета
IFR
Аэропорт подробнее: 

Авиационная погода в Москва - Домодедово

Регион: 
Погода METAR: 
UUDD 271500Z 33005MPS 9999 -SN SCT018 01/M03 Q1010 R88/190050 NOSIG
Время наблюдения
2021-02-27T15:00:00Z
Температура C
1.0
Точка росы
-3.0
Направление ветра
330
Скорость ветра (узлы)
10
Метео видимость
6.21
Явления погоды
-SN
Условия полета
VFR
Аэропорт подробнее: 

Авиационная погода в Йоэнсуу

Регион: 
Погода METAR: 
EFJO 271450Z AUTO 30006KT 280V340 9999 -SHSN OVC017 M00/M02 Q1016 REFZRA
Время наблюдения
2021-02-27T14:50:00Z
Температура C
0.0
Точка росы
-2.0
Направление ветра
300
Скорость ветра (узлы)
6
Метео видимость
6.21
Явления погоды
-SHSN
Условия полета
MVFR

Авиационная погода в Вардё

Регион: 
Погода METAR: 
ENSS 261750Z 35027KT 9999 6000NW -SHRA SCT014 BKN020 01/M02 Q1001 RMK WIND 500FT 35036KT
Время наблюдения
2021-02-26T17:50:00Z
Температура C
1.0
Точка росы
-2.0
Направление ветра
350
Скорость ветра (узлы)
27
Метео видимость
6.21
Явления погоды
-SHRA
Условия полета
MVFR